sensor_id;sensor_type;location;lat;lon;timestamp;pressure;altitude;pressure_sealevel;temperature;humidity
59367;BME280;45163;47.690;11.770;2023-05-23T00:00:28;93046.94;;;15.05;100.00
59367;BME280;45163;47.690;11.770;2023-05-23T00:02:54;93042.47;;;15.08;100.00
59367;BME280;45163;47.690;11.770;2023-05-23T00:05:20;93041.72;;;15.07;100.00
59367;BME280;45163;47.690;11.770;2023-05-23T00:07:45;93043.97;;;15.09;100.00
59367;BME280;45163;47.690;11.770;2023-05-23T00:10:12;93036.69;;;15.06;100.00
59367;BME280;45163;47.690;11.770;2023-05-23T00:12:38;93036.97;;;15.08;100.00
59367;BME280;45163;47.690;11.770;2023-05-23T00:15:07;93040.97;;;15.07;100.00
59367;BME280;45163;47.690;11.770;2023-05-23T00:17:35;93041.78;;;14.98;100.00
59367;BME280;45163;47.690;11.770;2023-05-23T00:20:07;93048.34;;;15.01;100.00
59367;BME280;45163;47.690;11.770;2023-05-23T00:22:37;93041.03;;;14.98;100.00
59367;BME280;45163;47.690;11.770;2023-05-23T00:25:09;93037.88;;;14.90;100.00
59367;BME280;45163;47.690;11.770;2023-05-23T00:27:35;93043.53;;;14.86;100.00
59367;BME280;45163;47.690;11.770;2023-05-23T00:30:02;93039.09;;;14.65;100.00
59367;BME280;45163;47.690;11.770;2023-05-23T00:32:29;93041.09;;;14.31;100.00
59367;BME280;45163;47.690;11.770;2023-05-23T00:34:55;93049.31;;;14.31;100.00
59367;BME280;45163;47.690;11.770;2023-05-23T00:37:21;93041.69;;;14.35;100.00
59367;BME280;45163;47.690;11.770;2023-05-23T00:39:47;93041.94;;;14.47;100.00
59367;BME280;45163;47.690;11.770;2023-05-23T00:42:13;93044.50;;;14.50;100.00
59367;BME280;45163;47.690;11.770;2023-05-23T00:44:39;93044.59;;;14.65;100.00
59367;BME280;45163;47.690;11.770;2023-05-23T00:47:06;93049.00;;;14.72;100.00
59367;BME280;45163;47.690;11.770;2023-05-23T00:49:33;93040.44;;;14.93;100.00
59367;BME280;45163;47.690;11.770;2023-05-23T00:52:02;93048.34;;;15.01;100.00
59367;BME280;45163;47.690;11.770;2023-05-23T00:54:29;93049.19;;;15.07;100.00
59367;BME280;45163;47.690;11.770;2023-05-23T00:56:57;93047.69;;;15.06;100.00
59367;BME280;45163;47.690;11.770;2023-05-23T00:59:23;93055.09;;;15.14;100.00
59367;BME280;45163;47.690;11.770;2023-05-23T01:01:51;93050.88;;;15.04;100.00
59367;BME280;45163;47.690;11.770;2023-05-23T01:04:18;93054.81;;;15.12;100.00
59367;BME280;45163;47.690;11.770;2023-05-23T01:06:55;93050.84;;;15.13;100.00
59367;BME280;45163;47.690;11.770;2023-05-23T01:09:22;93057.03;;;15.23;100.00
59367;BME280;45163;47.690;11.770;2023-05-23T01:15:00;93053.47;;;14.84;100.00
59367;BME280;45163;47.690;11.770;2023-05-23T01:17:38;93061.09;;;14.89;100.00
59367;BME280;45163;47.690;11.770;2023-05-23T01:20:11;93057.94;;;14.81;100.00
59367;BME280;45163;47.690;11.770;2023-05-23T01:25:27;93072.84;;;14.89;100.00
59367;BME280;45163;47.690;11.770;2023-05-23T01:28:00;93073.13;;;14.91;100.00
59367;BME280;45163;47.690;11.770;2023-05-23T01:30:30;93072.19;;;14.94;100.00
59367;BME280;45163;47.690;11.770;2023-05-23T01:32:58;93065.41;;;14.81;100.00
59367;BME280;45163;47.690;11.770;2023-05-23T01:35:26;93074.91;;;14.80;100.00
59367;BME280;45163;47.690;11.770;2023-05-23T01:37:53;93077.53;;;14.32;100.00
59367;BME280;45163;47.690;11.770;2023-05-23T01:40:20;93078.47;;;14.62;100.00
59367;BME280;45163;47.690;11.770;2023-05-23T01:42:46;93069.75;;;14.73;100.00
59367;BME280;45163;47.690;11.770;2023-05-23T01:45:13;93076.09;;;14.79;100.00
59367;BME280;45163;47.690;11.770;2023-05-23T01:47:40;93070.56;;;14.64;100.00
59367;BME280;45163;47.690;11.770;2023-05-23T01:50:08;93070.78;;;14.75;100.00
59367;BME280;45163;47.690;11.770;2023-05-23T01:52:35;93077.16;;;14.81;100.00
59367;BME280;45163;47.690;11.770;2023-05-23T01:55:04;93080.44;;;14.94;100.00
59367;BME280;45163;47.690;11.770;2023-05-23T01:57:36;93070.19;;;14.95;100.00
59367;BME280;45163;47.690;11.770;2023-05-23T02:00:06;93076.44;;;14.95;100.00
59367;BME280;45163;47.690;11.770;2023-05-23T02:02:33;93074.34;;;14.90;100.00
59367;BME280;45163;47.690;11.770;2023-05-23T02:04:59;93076.09;;;14.55;100.00
59367;BME280;45163;47.690;11.770;2023-05-23T02:07:25;93076.22;;;14.60;100.00
59367;BME280;45163;47.690;11.770;2023-05-23T02:09:51;93082.75;;;14.63;100.00
59367;BME280;45163;47.690;11.770;2023-05-23T02:12:17;93081.31;;;14.43;100.00
59367;BME280;45163;47.690;11.770;2023-05-23T02:14:43;93080.47;;;14.61;100.00
59367;BME280;45163;47.690;11.770;2023-05-23T02:17:09;93093.34;;;14.55;100.00
59367;BME280;45163;47.690;11.770;2023-05-23T02:19:35;93094.69;;;14.60;100.00
59367;BME280;45163;47.690;11.770;2023-05-23T02:22:04;93095.88;;;14.68;100.00
59367;BME280;45163;47.690;11.770;2023-05-23T02:24:30;93098.13;;;14.69;100.00
59367;BME280;45163;47.690;11.770;2023-05-23T02:26:56;93098.19;;;14.60;100.00
59367;BME280;45163;47.690;11.770;2023-05-23T02:29:22;93107.47;;;14.63;100.00
59367;BME280;45163;47.690;11.770;2023-05-23T02:31:48;93105.66;;;14.60;100.00
59367;BME280;45163;47.690;11.770;2023-05-23T02:34:13;93103.16;;;14.71;100.00
59367;BME280;45163;47.690;11.770;2023-05-23T02:36:39;93107.78;;;14.65;100.00
59367;BME280;45163;47.690;11.770;2023-05-23T02:39:05;93102.22;;;14.74;100.00
59367;BME280;45163;47.690;11.770;2023-05-23T02:41:31;93095.50;;;14.75;100.00
59367;BME280;45163;47.690;11.770;2023-05-23T02:43:58;93101.31;;;14.77;100.00
59367;BME280;45163;47.690;11.770;2023-05-23T02:46:24;93095.75;;;14.86;100.00
59367;BME280;45163;47.690;11.770;2023-05-23T02:48:50;93103.81;;;14.90;100.00
59367;BME280;45163;47.690;11.770;2023-05-23T02:51:16;93099.41;;;14.92;100.00
59367;BME280;45163;47.690;11.770;2023-05-23T02:53:42;93092.50;;;14.97;100.00
59367;BME280;45163;47.690;11.770;2023-05-23T02:56:08;93102.75;;;14.87;100.00
59367;BME280;45163;47.690;11.770;2023-05-23T02:58:34;93099.56;;;14.89;100.00
59367;BME280;45163;47.690;11.770;2023-05-23T03:01:01;93106.00;;;14.86;100.00
59367;BME280;45163;47.690;11.770;2023-05-23T03:03:27;93108.72;;;14.86;100.00
59367;BME280;45163;47.690;11.770;2023-05-23T03:05:55;93104.75;;;14.87;100.00
59367;BME280;45163;47.690;11.770;2023-05-23T03:08:21;93103.94;;;14.95;100.00
59367;BME280;45163;47.690;11.770;2023-05-23T03:10:46;93110.19;;;14.72;100.00
59367;BME280;45163;47.690;11.770;2023-05-23T03:13:12;93102.94;;;14.84;100.00
59367;BME280;45163;47.690;11.770;2023-05-23T03:15:38;93109.91;;;14.94;100.00
59367;BME280;45163;47.690;11.770;2023-05-23T03:18:04;93103.13;;;15.04;100.00
59367;BME280;45163;47.690;11.770;2023-05-23T03:20:31;93102.94;;;15.08;100.00
59367;BME280;45163;47.690;11.770;2023-05-23T03:22:57;93107.22;;;15.09;100.00
59367;BME280;45163;47.690;11.770;2023-05-23T03:25:23;93110.66;;;14.94;100.00
59367;BME280;45163;47.690;11.770;2023-05-23T03:27:49;93106.84;;;14.68;100.00
59367;BME280;45163;47.690;11.770;2023-05-23T03:30:15;93109.34;;;14.57;100.00
59367;BME280;45163;47.690;11.770;2023-05-23T03:32:41;93104.75;;;14.11;100.00
59367;BME280;45163;47.690;11.770;2023-05-23T03:35:07;93111.84;;;14.36;100.00
59367;BME280;45163;47.690;11.770;2023-05-23T03:37:33;93113.97;;;14.51;100.00
59367;BME280;45163;47.690;11.770;2023-05-23T03:39:59;93119.84;;;14.67;100.00
59367;BME280;45163;47.690;11.770;2023-05-23T03:42:27;93112.19;;;14.62;100.00
59367;BME280;45163;47.690;11.770;2023-05-23T03:44:53;93116.28;;;14.76;100.00
59367;BME280;45163;47.690;11.770;2023-05-23T03:47:19;93114.13;;;14.80;100.00
59367;BME280;45163;47.690;11.770;2023-05-23T03:49:45;93118.44;;;14.72;100.00
59367;BME280;45163;47.690;11.770;2023-05-23T03:52:11;93120.22;;;14.75;100.00
59367;BME280;45163;47.690;11.770;2023-05-23T03:54:37;93117.41;;;14.60;100.00
59367;BME280;45163;47.690;11.770;2023-05-23T03:57:03;93121.56;;;14.56;100.00
59367;BME280;45163;47.690;11.770;2023-05-23T03:59:29;93118.16;;;14.61;100.00
59367;BME280;45163;47.690;11.770;2023-05-23T04:01:55;93116.50;;;14.63;100.00
59367;BME280;45163;47.690;11.770;2023-05-23T04:04:23;93120.16;;;14.60;100.00
59367;BME280;45163;47.690;11.770;2023-05-23T04:06:50;93122.00;;;14.63;100.00
59367;BME280;45163;47.690;11.770;2023-05-23T04:09:16;93120.59;;;14.68;100.00
59367;BME280;45163;47.690;11.770;2023-05-23T04:11:43;93121.25;;;14.87;100.00
59367;BME280;45163;47.690;11.770;2023-05-23T04:14:09;93124.72;;;14.97;100.00
59367;BME280;45163;47.690;11.770;2023-05-23T04:16:36;93128.06;;;15.01;100.00
59367;BME280;45163;47.690;11.770;2023-05-23T04:19:02;93127.63;;;15.17;100.00
59367;BME280;45163;47.690;11.770;2023-05-23T04:21:31;93123.53;;;15.12;100.00
59367;BME280;45163;47.690;11.770;2023-05-23T04:23:57;93128.69;;;15.19;100.00
59367;BME280;45163;47.690;11.770;2023-05-23T04:26:23;93127.22;;;15.33;100.00
59367;BME280;45163;47.690;11.770;2023-05-23T04:28:50;93124.78;;;15.50;100.00
59367;BME280;45163;47.690;11.770;2023-05-23T04:31:21;93132.38;;;15.64;100.00
59367;BME280;45163;47.690;11.770;2023-05-23T04:33:47;93137.97;;;15.70;100.00
59367;BME280;45163;47.690;11.770;2023-05-23T04:36:14;93131.03;;;15.51;100.00
59367;BME280;45163;47.690;11.770;2023-05-23T04:38:40;93136.38;;;15.54;100.00
59367;BME280;45163;47.690;11.770;2023-05-23T04:41:08;93132.88;;;15.54;100.00
59367;BME280;45163;47.690;11.770;2023-05-23T04:43:37;93135.53;;;15.63;100.00
59367;BME280;45163;47.690;11.770;2023-05-23T04:46:10;93137.25;;;15.84;100.00
59367;BME280;45163;47.690;11.770;2023-05-23T04:48:38;93138.19;;;15.81;100.00
59367;BME280;45163;47.690;11.770;2023-05-23T04:51:04;93136.09;;;15.91;100.00
59367;BME280;45163;47.690;11.770;2023-05-23T04:53:33;93140.47;;;15.98;100.00
59367;BME280;45163;47.690;11.770;2023-05-23T04:55:59;93146.06;;;15.88;100.00
59367;BME280;45163;47.690;11.770;2023-05-23T04:58:26;93142.44;;;15.67;100.00
59367;BME280;45163;47.690;11.770;2023-05-23T05:00:52;93148.88;;;15.79;100.00
59367;BME280;45163;47.690;11.770;2023-05-23T05:03:18;93154.50;;;15.85;100.00
59367;BME280;45163;47.690;11.770;2023-05-23T05:05:44;93155.94;;;15.95;100.00
59367;BME280;45163;47.690;11.770;2023-05-23T05:08:10;93155.38;;;15.91;100.00
59367;BME280;45163;47.690;11.770;2023-05-23T05:10:38;93161.34;;;16.04;100.00
59367;BME280;45163;47.690;11.770;2023-05-23T05:13:05;93154.72;;;16.11;100.00
59367;BME280;45163;47.690;11.770;2023-05-23T05:15:31;93157.88;;;16.18;100.00
59367;BME280;45163;47.690;11.770;2023-05-23T05:17:56;93155.03;;;16.28;100.00
59367;BME280;45163;47.690;11.770;2023-05-23T05:20:22;93156.81;;;16.46;100.00
59367;BME280;45163;47.690;11.770;2023-05-23T05:22:54;93151.69;;;16.53;100.00
59367;BME280;45163;47.690;11.770;2023-05-23T05:25:21;93145.03;;;16.75;100.00
59367;BME280;45163;47.690;11.770;2023-05-23T05:27:47;93150.63;;;16.80;100.00
59367;BME280;45163;47.690;11.770;2023-05-23T05:30:13;93144.16;;;16.68;100.00
59367;BME280;45163;47.690;11.770;2023-05-23T05:32:39;93147.50;;;17.08;100.00
59367;BME280;45163;47.690;11.770;2023-05-23T05:35:07;93138.22;;;17.46;100.00
59367;BME280;45163;47.690;11.770;2023-05-23T05:37:33;93141.00;;;17.66;100.00
59367;BME280;45163;47.690;11.770;2023-05-23T05:39:59;93137.63;;;17.77;100.00
59367;BME280;45163;47.690;11.770;2023-05-23T05:42:30;93144.16;;;18.00;100.00
59367;BME280;45163;47.690;11.770;2023-05-23T05:44:56;93148.16;;;17.99;100.00
59367;BME280;45163;47.690;11.770;2023-05-23T05:47:22;93136.78;;;18.17;100.00
59367;BME280;45163;47.690;11.770;2023-05-23T05:49:48;93140.47;;;18.35;100.00
59367;BME280;45163;47.690;11.770;2023-05-23T05:52:14;93142.03;;;18.41;100.00
59367;BME280;45163;47.690;11.770;2023-05-23T05:54:40;93145.16;;;18.55;100.00
59367;BME280;45163;47.690;11.770;2023-05-23T05:57:06;93143.38;;;18.52;100.00
59367;BME280;45163;47.690;11.770;2023-05-23T05:59:32;93144.22;;;18.63;100.00
59367;BME280;45163;47.690;11.770;2023-05-23T06:01:58;93140.38;;;18.55;100.00
59367;BME280;45163;47.690;11.770;2023-05-23T06:04:24;93139.69;;;18.34;100.00
59367;BME280;45163;47.690;11.770;2023-05-23T06:06:50;93140.66;;;18.57;100.00
59367;BME280;45163;47.690;11.770;2023-05-23T06:09:16;93143.22;;;18.61;100.00
59367;BME280;45163;47.690;11.770;2023-05-23T06:11:42;93137.78;;;18.72;100.00
59367;BME280;45163;47.690;11.770;2023-05-23T06:14:08;93142.13;;;18.53;100.00
59367;BME280;45163;47.690;11.770;2023-05-23T06:16:34;93141.91;;;18.56;100.00
59367;BME280;45163;47.690;11.770;2023-05-23T06:19:00;93146.09;;;18.46;100.00
59367;BME280;45163;47.690;11.770;2023-05-23T06:21:26;93140.47;;;18.35;100.00
59367;BME280;45163;47.690;11.770;2023-05-23T06:23:52;93144.09;;;18.47;100.00
59367;BME280;45163;47.690;11.770;2023-05-23T06:26:18;93144.84;;;18.21;100.00
59367;BME280;45163;47.690;11.770;2023-05-23T06:28:44;93144.09;;;18.21;100.00
59367;BME280;45163;47.690;11.770;2023-05-23T06:31:10;93140.69;;;18.31;100.00
59367;BME280;45163;47.690;11.770;2023-05-23T06:33:36;93150.16;;;18.51;100.00
59367;BME280;45163;47.690;11.770;2023-05-23T06:36:03;93159.47;;;18.79;100.00
59367;BME280;45163;47.690;11.770;2023-05-23T06:38:30;93151.03;;;18.68;100.00
59367;BME280;45163;47.690;11.770;2023-05-23T06:40:58;93153.19;;;18.53;100.00
59367;BME280;45163;47.690;11.770;2023-05-23T06:43:24;93152.88;;;18.71;100.00
59367;BME280;45163;47.690;11.770;2023-05-23T06:45:50;93159.22;;;18.77;100.00
59367;BME280;45163;47.690;11.770;2023-05-23T06:48:16;93153.94;;;18.79;100.00
59367;BME280;45163;47.690;11.770;2023-05-23T06:50:45;93147.47;;;18.88;100.00
59367;BME280;45163;47.690;11.770;2023-05-23T06:53:11;93152.97;;;18.82;100.00
59367;BME280;45163;47.690;11.770;2023-05-23T06:55:40;93153.81;;;18.94;100.00
59367;BME280;45163;47.690;11.770;2023-05-23T06:58:06;93160.72;;;19.15;100.00
59367;BME280;45163;47.690;11.770;2023-05-23T07:00:32;93153.09;;;19.48;100.00
59367;BME280;45163;47.690;11.770;2023-05-23T07:02:58;93156.31;;;19.83;100.00
59367;BME280;45163;47.690;11.770;2023-05-23T07:05:26;93149.94;;;20.76;100.00
59367;BME280;45163;47.690;11.770;2023-05-23T07:07:53;93144.78;;;21.70;100.00
59367;BME280;45163;47.690;11.770;2023-05-23T07:10:19;93148.31;;;21.65;100.00
59367;BME280;45163;47.690;11.770;2023-05-23T07:12:46;93149.38;;;22.20;100.00
59367;BME280;45163;47.690;11.770;2023-05-23T07:15:12;93141.84;;;22.51;100.00
59367;BME280;45163;47.690;11.770;2023-05-23T07:17:39;93148.97;;;22.46;100.00
59367;BME280;45163;47.690;11.770;2023-05-23T07:20:06;93139.03;;;23.47;100.00
59367;BME280;45163;47.690;11.770;2023-05-23T07:22:33;93143.31;;;24.34;100.00
59367;BME280;45163;47.690;11.770;2023-05-23T07:24:59;93142.84;;;25.19;100.00
59367;BME280;45163;47.690;11.770;2023-05-23T07:27:28;93136.88;;;26.08;100.00
59367;BME280;45163;47.690;11.770;2023-05-23T07:30:03;93141.94;;;25.83;98.68
59367;BME280;45163;47.690;11.770;2023-05-23T07:32:30;93138.81;;;25.01;100.00
59367;BME280;45163;47.690;11.770;2023-05-23T07:34:56;93134.59;;;24.25;100.00
59367;BME280;45163;47.690;11.770;2023-05-23T07:37:22;93134.91;;;23.29;100.00
59367;BME280;45163;47.690;11.770;2023-05-23T07:39:48;93134.22;;;23.72;100.00
59367;BME280;45163;47.690;11.770;2023-05-23T07:42:16;93137.44;;;24.00;100.00
59367;BME280;45163;47.690;11.770;2023-05-23T07:44:42;93133.91;;;24.00;100.00
59367;BME280;45163;47.690;11.770;2023-05-23T07:47:14;93138.84;;;23.88;100.00
59367;BME280;45163;47.690;11.770;2023-05-23T07:49:43;93139.31;;;23.19;100.00
59367;BME280;45163;47.690;11.770;2023-05-23T07:52:14;93138.19;;;23.03;100.00
59367;BME280;45163;47.690;11.770;2023-05-23T07:54:40;93141.75;;;23.03;100.00
59367;BME280;45163;47.690;11.770;2023-05-23T07:57:07;93149.69;;;22.52;100.00
59367;BME280;45163;47.690;11.770;2023-05-23T07:59:33;93146.88;;;22.58;100.00
59367;BME280;45163;47.690;11.770;2023-05-23T08:01:59;93150.25;;;22.40;100.00
59367;BME280;45163;47.690;11.770;2023-05-23T08:04:25;93151.16;;;22.12;100.00
59367;BME280;45163;47.690;11.770;2023-05-23T08:06:54;93154.25;;;21.97;100.00
59367;BME280;45163;47.690;11.770;2023-05-23T08:09:21;93152.44;;;22.05;100.00
59367;BME280;45163;47.690;11.770;2023-05-23T08:11:47;93155.97;;;22.11;100.00
59367;BME280;45163;47.690;11.770;2023-05-23T08:14:13;93149.88;;;22.19;100.00
59367;BME280;45163;47.690;11.770;2023-05-23T08:16:39;93158.78;;;22.88;100.00
59367;BME280;45163;47.690;11.770;2023-05-23T08:19:06;93153.75;;;22.81;100.00
59367;BME280;45163;47.690;11.770;2023-05-23T08:21:32;93160.47;;;22.67;100.00
59367;BME280;45163;47.690;11.770;2023-05-23T08:23:58;93158.16;;;22.30;100.00
59367;BME280;45163;47.690;11.770;2023-05-23T08:26:24;93167.13;;;22.00;100.00
59367;BME280;45163;47.690;11.770;2023-05-23T08:28:52;93176.97;;;22.01;100.00
59367;BME280;45163;47.690;11.770;2023-05-23T08:31:18;93171.03;;;21.69;100.00
59367;BME280;45163;47.690;11.770;2023-05-23T08:33:44;93181.97;;;21.22;100.00
59367;BME280;45163;47.690;11.770;2023-05-23T08:36:10;93178.66;;;21.52;100.00
59367;BME280;45163;47.690;11.770;2023-05-23T08:38:36;93169.25;;;21.72;100.00
59367;BME280;45163;47.690;11.770;2023-05-23T08:41:04;93165.72;;;21.71;100.00
59367;BME280;45163;47.690;11.770;2023-05-23T08:43:33;93171.63;;;21.28;100.00
59367;BME280;45163;47.690;11.770;2023-05-23T08:45:59;93171.53;;;21.73;100.00
59367;BME280;45163;47.690;11.770;2023-05-23T08:48:25;93178.69;;;21.41;100.00
59367;BME280;45163;47.690;11.770;2023-05-23T08:50:51;93177.38;;;21.70;100.00
59367;BME280;45163;47.690;11.770;2023-05-23T08:53:19;93175.84;;;21.69;100.00
59367;BME280;45163;47.690;11.770;2023-05-23T08:55:49;93176.19;;;21.37;100.00
59367;BME280;45163;47.690;11.770;2023-05-23T08:58:17;93182.22;;;21.41;100.00
59367;BME280;45163;47.690;11.770;2023-05-23T09:00:48;93186.03;;;21.32;100.00
59367;BME280;45163;47.690;11.770;2023-05-23T09:03:14;93183.22;;;21.27;100.00
59367;BME280;45163;47.690;11.770;2023-05-23T09:05:41;93187.28;;;21.20;100.00
59367;BME280;45163;47.690;11.770;2023-05-23T09:08:08;93191.56;;;21.04;100.00
59367;BME280;45163;47.690;11.770;2023-05-23T09:10:34;93186.25;;;21.18;100.00
59367;BME280;45163;47.690;11.770;2023-05-23T09:13:00;93174.63;;;21.30;100.00
59367;BME280;45163;47.690;11.770;2023-05-23T09:15:26;93182.47;;;21.49;100.00
59367;BME280;45163;47.690;11.770;2023-05-23T09:17:58;93171.81;;;21.70;100.00
59367;BME280;45163;47.690;11.770;2023-05-23T09:20:27;93175.91;;;22.21;100.00
59367;BME280;45163;47.690;11.770;2023-05-23T09:22:54;93172.88;;;22.60;100.00
59367;BME280;45163;47.690;11.770;2023-05-23T09:25:20;93177.16;;;23.03;100.00
59367;BME280;45163;47.690;11.770;2023-05-23T09:27:46;93174.88;;;23.31;100.00
59367;BME280;45163;47.690;11.770;2023-05-23T09:30:12;93172.47;;;24.58;100.00
59367;BME280;45163;47.690;11.770;2023-05-23T09:32:38;93160.91;;;25.31;95.52
59367;BME280;45163;47.690;11.770;2023-05-23T09:35:06;93174.56;;;25.80;89.31
59367;BME280;45163;47.690;11.770;2023-05-23T09:37:37;93166.03;;;26.26;87.03
59367;BME280;45163;47.690;11.770;2023-05-23T09:40:11;93160.88;;;25.90;82.16
59367;BME280;45163;47.690;11.770;2023-05-23T09:42:42;93177.97;;;26.00;96.46
59367;BME280;45163;47.690;11.770;2023-05-23T09:45:09;93173.88;;;25.16;95.85
59367;BME280;45163;47.690;11.770;2023-05-23T09:47:35;93163.13;;;25.20;93.86
59367;BME280;45163;47.690;11.770;2023-05-23T09:50:02;93168.50;;;25.63;100.00
59367;BME280;45163;47.690;11.770;2023-05-23T09:52:37;93165.69;;;25.63;91.24
59367;BME280;45163;47.690;11.770;2023-05-23T09:55:07;93155.97;;;26.57;94.63
59367;BME280;45163;47.690;11.770;2023-05-23T09:57:35;93155.97;;;26.57;91.72
59367;BME280;45163;47.690;11.770;2023-05-23T10:00:03;93158.03;;;25.05;100.00
59367;BME280;45163;47.690;11.770;2023-05-23T10:03:04;93150.41;;;26.30;91.58
59367;BME280;45163;47.690;11.770;2023-05-23T10:08:43;93148.56;;;25.40;75.90
59367;BME280;45163;47.690;11.770;2023-05-23T10:13:42;93145.03;;;26.19;74.21
59367;BME280;45163;47.690;11.770;2023-05-23T10:16:13;93149.16;;;26.05;77.94
59367;BME280;45163;47.690;11.770;2023-05-23T10:18:54;93145.59;;;26.18;80.25
59367;BME280;45163;47.690;11.770;2023-05-23T10:21:29;93151.75;;;25.18;87.54
59367;BME280;45163;47.690;11.770;2023-05-23T10:24:02;93143.31;;;25.50;86.30
59367;BME280;45163;47.690;11.770;2023-05-23T10:26:29;93145.75;;;24.95;98.37
59367;BME280;45163;47.690;11.770;2023-05-23T10:28:56;93139.28;;;24.54;100.00
59367;BME280;45163;47.690;11.770;2023-05-23T10:31:23;93137.31;;;23.68;100.00
59367;BME280;45163;47.690;11.770;2023-05-23T10:33:59;93140.09;;;23.68;100.00
59367;BME280;45163;47.690;11.770;2023-05-23T10:36:37;93140.06;;;22.89;100.00
59367;BME280;45163;47.690;11.770;2023-05-23T10:39:12;93144.38;;;23.20;100.00
59367;BME280;45163;47.690;11.770;2023-05-23T10:41:51;93156.53;;;21.99;100.00
59367;BME280;45163;47.690;11.770;2023-05-23T10:44:28;93173.13;;;21.18;100.00
59367;BME280;45163;47.690;11.770;2023-05-23T10:46:58;93184.75;;;20.83;100.00
59367;BME280;45163;47.690;11.770;2023-05-23T10:49:51;93195.09;;;20.88;100.00
59367;BME280;45163;47.690;11.770;2023-05-23T10:52:17;93197.38;;;20.78;100.00
59367;BME280;45163;47.690;11.770;2023-05-23T10:54:49;93192.47;;;20.34;100.00
59367;BME280;45163;47.690;11.770;2023-05-23T10:57:16;93198.03;;;20.28;100.00
59367;BME280;45163;47.690;11.770;2023-05-23T10:59:49;93191.16;;;20.07;100.00
59367;BME280;45163;47.690;11.770;2023-05-23T11:02:24;93197.84;;;19.78;100.00
59367;BME280;45163;47.690;11.770;2023-05-23T11:05:22;93192.19;;;20.15;100.00
59367;BME280;45163;47.690;11.770;2023-05-23T11:08:12;93177.75;;;19.94;100.00
59367;BME280;45163;47.690;11.770;2023-05-23T11:10:58;93185.94;;;20.37;100.00
59367;BME280;45163;47.690;11.770;2023-05-23T11:13:52;93187.34;;;20.04;100.00
59367;BME280;45163;47.690;11.770;2023-05-23T11:16:30;93189.75;;;19.74;100.00
59367;BME280;45163;47.690;11.770;2023-05-23T11:24:30;93205.81;;;18.64;100.00
59367;BME280;45163;47.690;11.770;2023-05-23T11:27:10;93218.56;;;18.09;100.00
59367;BME280;45163;47.690;11.770;2023-05-23T11:29:37;93223.84;;;17.87;100.00
59367;BME280;45163;47.690;11.770;2023-05-23T11:32:12;93210.22;;;18.04;100.00
59367;BME280;45163;47.690;11.770;2023-05-23T11:34:38;93200.44;;;18.29;100.00
59367;BME280;45163;47.690;11.770;2023-05-23T11:37:04;93205.31;;;18.13;100.00
59367;BME280;45163;47.690;11.770;2023-05-23T11:39:30;93204.69;;;18.04;100.00
59367;BME280;45163;47.690;11.770;2023-05-23T11:42:01;93199.19;;;17.83;100.00
59367;BME280;45163;47.690;11.770;2023-05-23T11:44:27;93209.38;;;17.57;100.00
59367;BME280;45163;47.690;11.770;2023-05-23T11:47:04;93207.66;;;18.00;100.00
59367;BME280;45163;47.690;11.770;2023-05-23T11:49:34;93216.03;;;17.85;100.00
59367;BME280;45163;47.690;11.770;2023-05-23T11:52:03;93208.41;;;18.01;100.00
59367;BME280;45163;47.690;11.770;2023-05-23T11:54:31;93215.19;;;18.20;100.00
59367;BME280;45163;47.690;11.770;2023-05-23T11:56:58;93218.72;;;18.47;100.00
59367;BME280;45163;47.690;11.770;2023-05-23T11:59:25;93214.41;;;18.20;100.00
59367;BME280;45163;47.690;11.770;2023-05-23T12:01:53;93215.28;;;17.85;100.00
59367;BME280;45163;47.690;11.770;2023-05-23T12:04:20;93224.94;;;17.95;100.00
59367;BME280;45163;47.690;11.770;2023-05-23T12:06:47;93231.00;;;18.46;100.00
59367;BME280;45163;47.690;11.770;2023-05-23T12:09:13;93233.22;;;18.15;100.00
59367;BME280;45163;47.690;11.770;2023-05-23T12:11:41;93234.84;;;18.28;100.00
59367;BME280;45163;47.690;11.770;2023-05-23T12:14:08;93236.59;;;18.05;100.00
59367;BME280;45163;47.690;11.770;2023-05-23T12:16:37;93245.31;;;17.98;100.00
59367;BME280;45163;47.690;11.770;2023-05-23T12:19:06;93250.34;;;17.99;100.00
59367;BME280;45163;47.690;11.770;2023-05-23T12:21:48;93242.22;;;18.36;100.00
59367;BME280;45163;47.690;11.770;2023-05-23T12:26:49;93242.41;;;18.07;100.00
59367;BME280;45163;47.690;11.770;2023-05-23T12:29:20;93254.47;;;18.09;100.00
59367;BME280;45163;47.690;11.770;2023-05-23T12:31:50;93267.94;;;18.22;100.00
59367;BME280;45163;47.690;11.770;2023-05-23T12:34:19;93272.34;;;18.14;100.00
59367;BME280;45163;47.690;11.770;2023-05-23T12:36:46;93264.56;;;18.12;100.00
59367;BME280;45163;47.690;11.770;2023-05-23T12:39:23;93266.41;;;18.21;100.00
59367;BME280;45163;47.690;11.770;2023-05-23T12:41:51;93270.03;;;18.27;100.00
59367;BME280;45163;47.690;11.770;2023-05-23T12:44:17;93264.69;;;17.83;100.00
59367;BME280;45163;47.690;11.770;2023-05-23T12:46:46;93261.19;;;17.67;100.00
59367;BME280;45163;47.690;11.770;2023-05-23T12:49:14;93259.13;;;17.62;100.00
59367;BME280;45163;47.690;11.770;2023-05-23T12:51:44;93282.03;;;18.04;100.00
59367;BME280;45163;47.690;11.770;2023-05-23T12:54:16;93284.59;;;17.87;100.00
59367;BME280;45163;47.690;11.770;2023-05-23T12:56:54;93292.88;;;17.37;100.00
59367;BME280;45163;47.690;11.770;2023-05-23T12:59:20;93296.63;;;17.04;100.00
59367;BME280;45163;47.690;11.770;2023-05-23T13:01:46;93302.91;;;17.55;100.00
59367;BME280;45163;47.690;11.770;2023-05-23T13:04:12;93298.44;;;17.57;100.00